sensor_id;sensor_type;location;lat;lon;timestamp;P1;durP1;ratioP1;P2;durP2;ratioP2
47367;SDS011;34646;47.964;7.982;2024-03-02T00:01:25;8.05;;;2.95;;
47367;SDS011;34646;47.964;7.982;2024-03-02T00:07:25;6.57;;;2.87;;
47367;SDS011;34646;47.964;7.982;2024-03-02T00:13:26;7.87;;;2.40;;
47367;SDS011;34646;47.964;7.982;2024-03-02T00:19:27;7.30;;;2.60;;
47367;SDS011;34646;47.964;7.982;2024-03-02T00:25:35;7.90;;;2.72;;
47367;SDS011;34646;47.964;7.982;2024-03-02T00:31:43;6.35;;;2.45;;
47367;SDS011;34646;47.964;7.982;2024-03-02T00:37:44;6.33;;;2.57;;
47367;SDS011;34646;47.964;7.982;2024-03-02T00:50:05;3.35;;;1.92;;
47367;SDS011;34646;47.964;7.982;2024-03-02T00:56:09;4.85;;;2.20;;
47367;SDS011;34646;47.964;7.982;2024-03-02T01:02:10;6.53;;;2.47;;
47367;SDS011;34646;47.964;7.982;2024-03-02T01:08:11;7.47;;;2.40;;
47367;SDS011;34646;47.964;7.982;2024-03-02T01:14:12;4.97;;;2.30;;
47367;SDS011;34646;47.964;7.982;2024-03-02T01:20:13;4.63;;;2.03;;
47367;SDS011;34646;47.964;7.982;2024-03-02T01:26:13;6.77;;;2.07;;
47367;SDS011;34646;47.964;7.982;2024-03-02T01:32:14;5.03;;;2.20;;
47367;SDS011;34646;47.964;7.982;2024-03-02T01:38:16;4.85;;;1.90;;
47367;SDS011;34646;47.964;7.982;2024-03-02T01:44:17;6.60;;;2.17;;
47367;SDS011;34646;47.964;7.982;2024-03-02T01:50:32;5.80;;;1.90;;
47367;SDS011;34646;47.964;7.982;2024-03-02T01:56:34;6.43;;;2.70;;
47367;SDS011;34646;47.964;7.982;2024-03-02T02:02:35;5.50;;;2.20;;
47367;SDS011;34646;47.964;7.982;2024-03-02T02:08:36;7.30;;;2.28;;
47367;SDS011;34646;47.964;7.982;2024-03-02T02:14:37;4.57;;;2.15;;
47367;SDS011;34646;47.964;7.982;2024-03-02T02:20:40;5.15;;;2.00;;
47367;SDS011;34646;47.964;7.982;2024-03-02T02:26:41;4.23;;;1.90;;
47367;SDS011;34646;47.964;7.982;2024-03-02T02:32:42;5.00;;;1.80;;
47367;SDS011;34646;47.964;7.982;2024-03-02T02:38:44;5.93;;;2.05;;
47367;SDS011;34646;47.964;7.982;2024-03-02T02:44:47;6.15;;;2.05;;
47367;SDS011;34646;47.964;7.982;2024-03-02T02:50:48;3.30;;;1.80;;
47367;SDS011;34646;47.964;7.982;2024-03-02T02:56:51;4.07;;;1.67;;
47367;SDS011;34646;47.964;7.982;2024-03-02T03:02:52;3.08;;;1.63;;
47367;SDS011;34646;47.964;7.982;2024-03-02T03:08:53;4.73;;;2.10;;
47367;SDS011;34646;47.964;7.982;2024-03-02T03:14:54;3.73;;;1.73;;
47367;SDS011;34646;47.964;7.982;2024-03-02T03:20:55;4.35;;;1.55;;
47367;SDS011;34646;47.964;7.982;2024-03-02T03:26:56;3.00;;;1.47;;
47367;SDS011;34646;47.964;7.982;2024-03-02T03:32:57;5.63;;;1.93;;
47367;SDS011;34646;47.964;7.982;2024-03-02T03:38:57;4.80;;;1.70;;
47367;SDS011;34646;47.964;7.982;2024-03-02T03:44:58;4.23;;;1.83;;
47367;SDS011;34646;47.964;7.982;2024-03-02T03:50:59;3.23;;;1.43;;
47367;SDS011;34646;47.964;7.982;2024-03-02T03:57:00;3.83;;;1.50;;
47367;SDS011;34646;47.964;7.982;2024-03-02T04:03:00;3.10;;;1.40;;
47367;SDS011;34646;47.964;7.982;2024-03-02T04:09:01;3.07;;;1.77;;
47367;SDS011;34646;47.964;7.982;2024-03-02T04:15:07;4.43;;;1.30;;
47367;SDS011;34646;47.964;7.982;2024-03-02T04:21:08;3.05;;;1.52;;
47367;SDS011;34646;47.964;7.982;2024-03-02T04:27:09;3.30;;;1.43;;
47367;SDS011;34646;47.964;7.982;2024-03-02T04:33:10;3.10;;;1.53;;
47367;SDS011;34646;47.964;7.982;2024-03-02T04:39:10;5.33;;;1.57;;
47367;SDS011;34646;47.964;7.982;2024-03-02T04:45:11;2.70;;;1.23;;
47367;SDS011;34646;47.964;7.982;2024-03-02T04:51:12;3.80;;;1.30;;
47367;SDS011;34646;47.964;7.982;2024-03-02T04:57:13;4.78;;;1.60;;
47367;SDS011;34646;47.964;7.982;2024-03-02T05:03:14;2.03;;;1.30;;
47367;SDS011;34646;47.964;7.982;2024-03-02T05:09:15;2.70;;;1.20;;
47367;SDS011;34646;47.964;7.982;2024-03-02T05:15:15;3.77;;;1.30;;
47367;SDS011;34646;47.964;7.982;2024-03-02T05:21:16;3.07;;;1.60;;
47367;SDS011;34646;47.964;7.982;2024-03-02T05:27:17;2.30;;;1.20;;
47367;SDS011;34646;47.964;7.982;2024-03-02T05:33:18;2.87;;;1.30;;
47367;SDS011;34646;47.964;7.982;2024-03-02T05:39:19;4.00;;;1.77;;
47367;SDS011;34646;47.964;7.982;2024-03-02T05:45:20;3.57;;;1.17;;
47367;SDS011;34646;47.964;7.982;2024-03-02T05:51:20;3.77;;;1.23;;
47367;SDS011;34646;47.964;7.982;2024-03-02T05:57:21;2.63;;;1.30;;
47367;SDS011;34646;47.964;7.982;2024-03-02T06:03:45;2.80;;;1.38;;
47367;SDS011;34646;47.964;7.982;2024-03-02T06:09:46;3.45;;;1.23;;
47367;SDS011;34646;47.964;7.982;2024-03-02T06:15:48;2.20;;;1.27;;
47367;SDS011;34646;47.964;7.982;2024-03-02T06:21:49;2.40;;;1.33;;
47367;SDS011;34646;47.964;7.982;2024-03-02T06:27:50;3.30;;;1.13;;
47367;SDS011;34646;47.964;7.982;2024-03-02T06:33:50;1.97;;;1.10;;
47367;SDS011;34646;47.964;7.982;2024-03-02T06:39:51;3.40;;;1.20;;
47367;SDS011;34646;47.964;7.982;2024-03-02T06:45:52;2.90;;;1.20;;
47367;SDS011;34646;47.964;7.982;2024-03-02T06:51:53;2.73;;;1.00;;
47367;SDS011;34646;47.964;7.982;2024-03-02T06:57:54;3.73;;;1.13;;
47367;SDS011;34646;47.964;7.982;2024-03-02T07:03:55;1.60;;;1.03;;
47367;SDS011;34646;47.964;7.982;2024-03-02T07:09:55;3.63;;;1.10;;
47367;SDS011;34646;47.964;7.982;2024-03-02T07:15:56;2.03;;;0.97;;
47367;SDS011;34646;47.964;7.982;2024-03-02T07:22:05;5.72;;;1.10;;
47367;SDS011;34646;47.964;7.982;2024-03-02T07:28:07;5.18;;;1.20;;
47367;SDS011;34646;47.964;7.982;2024-03-02T07:34:08;4.38;;;1.15;;
47367;SDS011;34646;47.964;7.982;2024-03-02T07:40:09;6.90;;;1.20;;
47367;SDS011;34646;47.964;7.982;2024-03-02T07:46:13;3.28;;;1.30;;
47367;SDS011;34646;47.964;7.982;2024-03-02T07:52:14;5.77;;;1.07;;
47367;SDS011;34646;47.964;7.982;2024-03-02T07:58:14;4.93;;;1.13;;
47367;SDS011;34646;47.964;7.982;2024-03-02T08:04:15;3.20;;;1.10;;
47367;SDS011;34646;47.964;7.982;2024-03-02T08:10:16;4.40;;;1.10;;
47367;SDS011;34646;47.964;7.982;2024-03-02T08:16:17;10.07;;;1.03;;
47367;SDS011;34646;47.964;7.982;2024-03-02T08:22:21;6.25;;;0.85;;
47367;SDS011;34646;47.964;7.982;2024-03-02T08:28:22;5.05;;;0.88;;
47367;SDS011;34646;47.964;7.982;2024-03-02T08:34:23;7.20;;;1.48;;
47367;SDS011;34646;47.964;7.982;2024-03-02T08:40:24;7.50;;;1.10;;
47367;SDS011;34646;47.964;7.982;2024-03-02T08:46:25;2.57;;;0.70;;
47367;SDS011;34646;47.964;7.982;2024-03-02T08:52:26;3.42;;;0.80;;
47367;SDS011;34646;47.964;7.982;2024-03-02T08:58:27;5.67;;;1.63;;
47367;SDS011;34646;47.964;7.982;2024-03-02T09:04:28;3.45;;;1.20;;
47367;SDS011;34646;47.964;7.982;2024-03-02T09:10:29;1.83;;;0.88;;
47367;SDS011;34646;47.964;7.982;2024-03-02T09:16:30;4.73;;;0.90;;
47367;SDS011;34646;47.964;7.982;2024-03-02T09:22:31;2.78;;;0.63;;
47367;SDS011;34646;47.964;7.982;2024-03-02T09:28:32;1.20;;;0.50;;
47367;SDS011;34646;47.964;7.982;2024-03-02T09:34:33;3.77;;;0.80;;
47367;SDS011;34646;47.964;7.982;2024-03-02T09:40:34;1.27;;;0.73;;
47367;SDS011;34646;47.964;7.982;2024-03-02T09:52:36;1.65;;;0.90;;
47367;SDS011;34646;47.964;7.982;2024-03-02T09:58:39;3.35;;;0.82;;
47367;SDS011;34646;47.964;7.982;2024-03-02T10:04:40;4.93;;;0.90;;
47367;SDS011;34646;47.964;7.982;2024-03-02T10:10:41;5.53;;;0.93;;
47367;SDS011;34646;47.964;7.982;2024-03-02T10:16:44;3.08;;;0.73;;
47367;SDS011;34646;47.964;7.982;2024-03-02T10:22:45;5.03;;;1.02;;
47367;SDS011;34646;47.964;7.982;2024-03-02T10:28:46;3.87;;;1.03;;
47367;SDS011;34646;47.964;7.982;2024-03-02T10:34:59;17.20;;;1.02;;
47367;SDS011;34646;47.964;7.982;2024-03-02T10:41:00;10.27;;;1.15;;
47367;SDS011;34646;47.964;7.982;2024-03-02T10:47:02;8.55;;;0.90;;
47367;SDS011;34646;47.964;7.982;2024-03-02T10:53:04;4.57;;;0.90;;
47367;SDS011;34646;47.964;7.982;2024-03-02T10:59:16;3.80;;;0.70;;
47367;SDS011;34646;47.964;7.982;2024-03-02T11:05:27;8.43;;;0.88;;
47367;SDS011;34646;47.964;7.982;2024-03-02T11:11:30;5.75;;;1.25;;
47367;SDS011;34646;47.964;7.982;2024-03-02T11:17:35;9.88;;;0.80;;
47367;SDS011;34646;47.964;7.982;2024-03-02T11:23:36;6.97;;;1.10;;
47367;SDS011;34646;47.964;7.982;2024-03-02T11:35:42;3.25;;;0.90;;
47367;SDS011;34646;47.964;7.982;2024-03-02T11:41:47;4.20;;;0.93;;
47367;SDS011;34646;47.964;7.982;2024-03-02T11:47:51;4.40;;;1.27;;
47367;SDS011;34646;47.964;7.982;2024-03-02T11:53:54;7.50;;;0.88;;
47367;SDS011;34646;47.964;7.982;2024-03-02T11:59:58;4.50;;;0.82;;
47367;SDS011;34646;47.964;7.982;2024-03-02T12:05:59;3.53;;;0.75;;
47367;SDS011;34646;47.964;7.982;2024-03-02T12:12:01;9.48;;;1.35;;
47367;SDS011;34646;47.964;7.982;2024-03-02T12:18:06;2.45;;;0.70;;
47367;SDS011;34646;47.964;7.982;2024-03-02T12:24:06;2.00;;;1.00;;
47367;SDS011;34646;47.964;7.982;2024-03-02T12:30:08;3.05;;;0.80;;
47367;SDS011;34646;47.964;7.982;2024-03-02T12:36:10;5.90;;;0.93;;
47367;SDS011;34646;47.964;7.982;2024-03-02T12:48:12;5.97;;;0.65;;
47367;SDS011;34646;47.964;7.982;2024-03-02T12:54:14;5.10;;;0.93;;
47367;SDS011;34646;47.964;7.982;2024-03-02T13:00:17;4.15;;;0.90;;
47367;SDS011;34646;47.964;7.982;2024-03-02T13:06:19;2.05;;;0.50;;
47367;SDS011;34646;47.964;7.982;2024-03-02T13:12:20;2.97;;;0.60;;
47367;SDS011;34646;47.964;7.982;2024-03-02T13:18:22;5.18;;;0.68;;
47367;SDS011;34646;47.964;7.982;2024-03-02T13:24:23;2.60;;;0.70;;
47367;SDS011;34646;47.964;7.982;2024-03-02T13:30:28;2.92;;;1.02;;
47367;SDS011;34646;47.964;7.982;2024-03-02T13:36:29;2.42;;;0.60;;
47367;SDS011;34646;47.964;7.982;2024-03-02T13:42:30;2.70;;;0.90;;
47367;SDS011;34646;47.964;7.982;2024-03-02T13:48:31;2.93;;;0.73;;
47367;SDS011;34646;47.964;7.982;2024-03-02T13:54:32;1.85;;;0.65;;
47367;SDS011;34646;47.964;7.982;2024-03-02T14:00:32;3.30;;;0.80;;
47367;SDS011;34646;47.964;7.982;2024-03-02T14:06:34;1.67;;;0.60;;
47367;SDS011;34646;47.964;7.982;2024-03-02T14:12:35;12.70;;;1.42;;
47367;SDS011;34646;47.964;7.982;2024-03-02T14:18:36;11.77;;;1.05;;
47367;SDS011;34646;47.964;7.982;2024-03-02T14:24:36;13.63;;;1.50;;
47367;SDS011;34646;47.964;7.982;2024-03-02T14:30:37;14.73;;;1.07;;
47367;SDS011;34646;47.964;7.982;2024-03-02T14:36:38;13.50;;;0.75;;
47367;SDS011;34646;47.964;7.982;2024-03-02T14:42:39;9.88;;;1.00;;
47367;SDS011;34646;47.964;7.982;2024-03-02T14:48:42;4.10;;;0.65;;
47367;SDS011;34646;47.964;7.982;2024-03-02T14:54:44;13.85;;;1.25;;
47367;SDS011;34646;47.964;7.982;2024-03-02T15:00:45;14.53;;;1.07;;
47367;SDS011;34646;47.964;7.982;2024-03-02T15:06:46;3.83;;;0.70;;
47367;SDS011;34646;47.964;7.982;2024-03-02T15:12:47;4.97;;;1.30;;
47367;SDS011;34646;47.964;7.982;2024-03-02T15:18:48;5.43;;;1.20;;
47367;SDS011;34646;47.964;7.982;2024-03-02T15:24:49;5.53;;;0.80;;
47367;SDS011;34646;47.964;7.982;2024-03-02T15:30:51;4.90;;;1.00;;
47367;SDS011;34646;47.964;7.982;2024-03-02T15:36:52;6.03;;;0.73;;
47367;SDS011;34646;47.964;7.982;2024-03-02T15:42:52;1.90;;;0.90;;
47367;SDS011;34646;47.964;7.982;2024-03-02T15:48:53;7.43;;;1.00;;
47367;SDS011;34646;47.964;7.982;2024-03-02T15:54:55;4.65;;;0.60;;
47367;SDS011;34646;47.964;7.982;2024-03-02T16:00:55;2.23;;;0.53;;
47367;SDS011;34646;47.964;7.982;2024-03-02T16:06:58;2.13;;;0.52;;
47367;SDS011;34646;47.964;7.982;2024-03-02T16:12:59;2.28;;;0.50;;
47367;SDS011;34646;47.964;7.982;2024-03-02T16:19:00;2.90;;;0.47;;
47367;SDS011;34646;47.964;7.982;2024-03-02T16:25:03;4.65;;;0.65;;
47367;SDS011;34646;47.964;7.982;2024-03-02T16:31:04;2.67;;;0.50;;
47367;SDS011;34646;47.964;7.982;2024-03-02T16:37:05;6.17;;;0.77;;
47367;SDS011;34646;47.964;7.982;2024-03-02T16:43:06;2.63;;;1.20;;
47367;SDS011;34646;47.964;7.982;2024-03-02T16:49:07;2.80;;;0.80;;
47367;SDS011;34646;47.964;7.982;2024-03-02T17:01:09;7.15;;;0.90;;
47367;SDS011;34646;47.964;7.982;2024-03-02T17:07:10;1.83;;;0.60;;
47367;SDS011;34646;47.964;7.982;2024-03-02T17:13:11;4.10;;;0.80;;
47367;SDS011;34646;47.964;7.982;2024-03-02T17:19:12;2.87;;;0.77;;
47367;SDS011;34646;47.964;7.982;2024-03-02T17:25:13;4.33;;;0.60;;
47367;SDS011;34646;47.964;7.982;2024-03-02T17:31:14;5.23;;;1.50;;
47367;SDS011;34646;47.964;7.982;2024-03-02T17:37:14;1.50;;;0.60;;
47367;SDS011;34646;47.964;7.982;2024-03-02T17:43:15;3.10;;;0.60;;
47367;SDS011;34646;47.964;7.982;2024-03-02T17:49:16;2.83;;;0.82;;
47367;SDS011;34646;47.964;7.982;2024-03-02T17:55:17;3.63;;;0.70;;
47367;SDS011;34646;47.964;7.982;2024-03-02T18:01:18;7.05;;;1.20;;
47367;SDS011;34646;47.964;7.982;2024-03-02T18:07:19;4.07;;;1.00;;
47367;SDS011;34646;47.964;7.982;2024-03-02T18:13:20;6.63;;;1.23;;
47367;SDS011;34646;47.964;7.982;2024-03-02T18:19:21;8.55;;;1.40;;
47367;SDS011;34646;47.964;7.982;2024-03-02T18:25:21;5.10;;;1.30;;
47367;SDS011;34646;47.964;7.982;2024-03-02T18:31:22;9.77;;;3.10;;
47367;SDS011;34646;47.964;7.982;2024-03-02T18:37:23;18.30;;;3.05;;
47367;SDS011;34646;47.964;7.982;2024-03-02T18:43:24;12.90;;;2.67;;
47367;SDS011;34646;47.964;7.982;2024-03-02T18:49:25;13.90;;;3.30;;
47367;SDS011;34646;47.964;7.982;2024-03-02T18:55:26;20.88;;;4.20;;
47367;SDS011;34646;47.964;7.982;2024-03-02T19:01:27;20.33;;;4.28;;
47367;SDS011;34646;47.964;7.982;2024-03-02T19:07:28;15.07;;;3.80;;
47367;SDS011;34646;47.964;7.982;2024-03-02T19:13:29;14.53;;;4.37;;
47367;SDS011;34646;47.964;7.982;2024-03-02T19:19:30;19.27;;;4.33;;
47367;SDS011;34646;47.964;7.982;2024-03-02T19:25:31;16.13;;;3.93;;
47367;SDS011;34646;47.964;7.982;2024-03-02T19:31:32;24.83;;;4.60;;
47367;SDS011;34646;47.964;7.982;2024-03-02T19:37:32;17.80;;;4.17;;
47367;SDS011;34646;47.964;7.982;2024-03-02T19:43:35;18.50;;;4.05;;
47367;SDS011;34646;47.964;7.982;2024-03-02T19:49:35;16.23;;;4.93;;
47367;SDS011;34646;47.964;7.982;2024-03-02T19:55:36;14.63;;;4.43;;
47367;SDS011;34646;47.964;7.982;2024-03-02T20:01:38;14.13;;;3.47;;
47367;SDS011;34646;47.964;7.982;2024-03-02T20:07:40;11.50;;;3.33;;
47367;SDS011;34646;47.964;7.982;2024-03-02T20:13:41;16.65;;;3.40;;
47367;SDS011;34646;47.964;7.982;2024-03-02T20:19:42;10.93;;;3.43;;
47367;SDS011;34646;47.964;7.982;2024-03-02T20:25:43;12.38;;;3.22;;
47367;SDS011;34646;47.964;7.982;2024-03-02T20:31:44;14.77;;;3.83;;
47367;SDS011;34646;47.964;7.982;2024-03-02T20:37:45;13.27;;;4.37;;
47367;SDS011;34646;47.964;7.982;2024-03-02T20:43:46;9.98;;;3.30;;
47367;SDS011;34646;47.964;7.982;2024-03-02T20:49:47;11.52;;;3.45;;
47367;SDS011;34646;47.964;7.982;2024-03-02T20:55:48;9.77;;;3.30;;
47367;SDS011;34646;47.964;7.982;2024-03-02T21:01:49;12.20;;;2.97;;
47367;SDS011;34646;47.964;7.982;2024-03-02T21:07:50;11.48;;;3.78;;
47367;SDS011;34646;47.964;7.982;2024-03-02T21:13:51;11.18;;;2.97;;
47367;SDS011;34646;47.964;7.982;2024-03-02T21:19:52;13.98;;;3.00;;
47367;SDS011;34646;47.964;7.982;2024-03-02T21:25:53;13.35;;;3.30;;
47367;SDS011;34646;47.964;7.982;2024-03-02T21:31:54;12.20;;;3.37;;
47367;SDS011;34646;47.964;7.982;2024-03-02T21:37:56;7.80;;;2.75;;
47367;SDS011;34646;47.964;7.982;2024-03-02T21:43:57;9.88;;;3.15;;
47367;SDS011;34646;47.964;7.982;2024-03-02T21:49:58;9.17;;;3.60;;
47367;SDS011;34646;47.964;7.982;2024-03-02T21:55:59;9.13;;;2.93;;
47367;SDS011;34646;47.964;7.982;2024-03-02T22:01:59;8.50;;;2.40;;
47367;SDS011;34646;47.964;7.982;2024-03-02T22:08:00;9.87;;;2.80;;
47367;SDS011;34646;47.964;7.982;2024-03-02T22:14:01;7.30;;;2.50;;
47367;SDS011;34646;47.964;7.982;2024-03-02T22:20:02;7.77;;;2.90;;
47367;SDS011;34646;47.964;7.982;2024-03-02T22:26:03;10.80;;;2.90;;
47367;SDS011;34646;47.964;7.982;2024-03-02T22:32:04;7.45;;;2.80;;
47367;SDS011;34646;47.964;7.982;2024-03-02T22:38:05;5.72;;;2.33;;
47367;SDS011;34646;47.964;7.982;2024-03-02T22:44:06;6.03;;;2.20;;
47367;SDS011;34646;47.964;7.982;2024-03-02T22:50:07;5.13;;;2.20;;
47367;SDS011;34646;47.964;7.982;2024-03-02T22:56:08;6.00;;;2.07;;
47367;SDS011;34646;47.964;7.982;2024-03-02T23:02:09;7.43;;;3.07;;
47367;SDS011;34646;47.964;7.982;2024-03-02T23:08:10;6.93;;;2.57;;
47367;SDS011;34646;47.964;7.982;2024-03-02T23:14:11;6.33;;;2.53;;
47367;SDS011;34646;47.964;7.982;2024-03-02T23:20:12;6.17;;;2.10;;
47367;SDS011;34646;47.964;7.982;2024-03-02T23:26:13;6.13;;;2.33;;
47367;SDS011;34646;47.964;7.982;2024-03-02T23:32:14;7.93;;;2.43;;
47367;SDS011;34646;47.964;7.982;2024-03-02T23:38:14;6.63;;;2.13;;
47367;SDS011;34646;47.964;7.982;2024-03-02T23:44:15;9.43;;;2.30;;
47367;SDS011;34646;47.964;7.982;2024-03-02T23:50:16;4.80;;;2.10;;
47367;SDS011;34646;47.964;7.982;2024-03-02T23:56:17;8.40;;;2.67;;
